Date,TemperatureHighF,TemperatureAvgF,TemperatureLowF,DewpointHighF,DewpointAvgF,DewpointLowF,HumidityHigh,HumidityAvg,HumidityLow,PressureMaxIn,PressureMinIn,WindSpeedMaxMPH,WindSpeedAvgMPH,GustSpeedMaxMPH,PrecipitationSumIn
2013-1-1,35.6,29.9,15.0,27.2,19.0,7.5,76,64,49,29.91,29.68,9,4,27,0.00
2013-1-2,28.7,17.6,7.5,17.2,9.0,1.5,86,69,57,30.09,29.87,7,3,20,0.00
2013-1-3,23.7,12.2,0.4,11.0,1.4,-5.6,82,63,34,30.12,29.97,5,1,12,0.00
2013-1-4,37.3,25.7,9.2,25.3,18.7,6.9,93,76,57,29.97,29.78,9,3,24,0.00
2013-1-5,40.5,31.2,17.8,26.2,21.2,14.8,90,68,43,30.23,29.82,7,2,20,0.00
2013-1-6,41.7,30.3,19.4,29.1,25.1,16.2,92,82,60,30.20,29.91,7,1,14,0.00
2013-1-7,37.4,27.7,18.4,30.1,21.4,15.9,96,79,48,30.37,29.93,7,2,16,0.00
2013-1-8,45.2,32.3,20.8,29.8,25.9,19.1,95,79,52,30.34,30.22,8,3,19,0.00
2013-1-9,43.4,33.5,19.7,35.5,28.1,18.3,96,81,57,30.38,29.97,7,2,19,0.00
2013-1-10,45.6,39.5,28.9,29.8,25.8,23.3,81,58,45,30.51,30.01,9,4,25,0.00
2013-1-11,38.0,31.5,23.1,35.6,27.4,21.0,97,85,67,30.50,30.20,2,0,7,0.06
2013-1-12,40.3,37.7,35.0,40.0,37.2,34.5,99,98,96,30.20,30.10,2,0,8,0.01
2013-1-13,50.1,44.5,37.2,49.8,44.2,36.8,99,99,99,30.12,29.95,5,2,11,0.00
2013-1-14,59.6,49.7,39.6,52.7,43.6,29.0,99,81,47,30.23,29.80,9,3,20,0.00
2013-1-15,40.7,35.9,29.9,29.8,26.8,24.8,86,70,55,30.29,30.18,5,1,10,0.00
2013-1-16,33.1,31.7,29.8,31.8,29.8,26.5,97,93,82,30.22,29.79,2,0,4,0.33
2013-1-17,40.4,32.9,26.2,34.5,27.6,15.3,97,82,55,30.06,29.80,5,2,13,0.00
2013-1-18,28.8,21.0,15.8,15.9,4.0,-2.4,65,48,34,30.42,30.03,9,4,23,0.00
2013-1-19,46.8,36.0,20.2,32.6,23.1,8.1,77,60,43,30.35,29.84,10,5,29,0.00
2013-1-20,52.1,39.8,27.4,33.1,26.5,11.6,77,60,39,29.89,29.50,13,5,31,0.00
2013-1-21,28.2,23.8,19.0,20.4,12.4,6.5,93,63,44,30.06,29.77,7,2,20,0.02
2013-1-22,24.9,18.5,11.0,19.9,8.8,0.1,93,68,42,30.05,29.73,7,3,20,0.00
2013-1-23,16.1,10.3,5.4,1.4,-4.9,-8.3,69,50,36,30.11,30.03,8,4,21,0.00
2013-1-24,19.9,10.2,0.3,-3.2,-6.4,-9.2,68,48,31,30.21,30.03,9,4,23,0.00
2013-1-25,24.0,15.6,6.4,11.5,-3.4,-8.8,77,43,28,30.28,30.04,7,3,22,0.00
2013-1-26,24.5,16.5,9.2,13.1,3.7,-4.5,90,60,33,30.22,29.98,8,3,19,0.00
2013-1-27,30.3,19.1,7.5,6.2,2.5,-2.2,78,50,31,30.44,30.21,10,3,19,0.00
2013-1-28,30.2,23.0,14.6,25.3,14.6,3.4,95,72,39,30.43,29.99,4,1,12,0.12
2013-1-29,33.0,29.3,24.7,32.0,27.6,23.2,97,93,89,30.17,30.00,3,1,6,0.00
2013-1-30,60.2,47.0,32.3,57.6,45.9,31.5,99,96,89,30.12,29.41,9,4,27,0.04
2013-1-31,60.8,46.8,29.1,58.9,38.3,17.4,96,73,46,29.56,28.92,13,7,46,0.55
2013-2-1,33.2,27.9,21.2,19.5,10.7,5.5,67,48,35,30.05,29.56,8,5,21,0.00
2013-2-2,29.6,23.6,14.4,12.9,8.3,4.4,69,52,42,30.22,30.02,6,3,16,0.00
2013-2-3,26.3,23.9,19.0,22.5,20.1,12.9,93,85,58,30.03,29.70,5,2,9,0.00
2013-2-4,29.5,22.8,16.2,21.2,12.4,6.3,94,66,45,29.91,29.69,9,4,25,0.00
2013-2-5,28.5,24.2,18.7,22.2,14.3,8.5,91,66,54,30.00,29.91,4,1,14,0.00
2013-2-6,38.6,29.1,22.1,26.9,19.6,6.9,95,70,44,30.27,29.90,7,2,19,0.00
2013-2-7,29.6,23.1,13.0,10.7,5.9,1.3,81,49,33,30.49,30.27,8,2,16,0.00
2013-2-8,31.6,23.9,17.5,29.4,20.4,8.2,96,87,49,30.46,29.60,19,6,34,0.45
2013-2-9,22.2,18.3,13.7,18.5,14.7,6.9,94,86,74,30.18,29.58,15,8,33,0.29
2013-2-10,39.2,19.4,-1.0,14.7,6.5,-4.5,88,63,21,30.36,30.18,6,1,17,0.00
2013-2-11,36.3,26.6,8.0,35.5,24.5,5.2,98,92,74,30.33,29.58,4,0,12,0.17
2013-2-12,43.7,37.4,28.3,35.6,30.0,23.3,99,75,57,29.84,29.58,9,4,24,0.00
2013-2-13,42.1,31.9,22.1,26.9,24.7,19.5,93,76,53,29.84,29.66,6,1,11,0.00
2013-2-14,43.6,34.2,26.2,27.0,23.7,21.3,89,67,42,29.96,29.68,7,2,15,0.00
2013-2-15,50.9,37.2,25.9,35.0,30.3,22.8,96,78,53,29.96,29.86,8,3,20,0.00
2013-2-16,37.7,33.2,26.1,31.6,27.3,18.3,96,80,57,29.92,29.70,9,3,20,0.01
2013-2-17,29.1,21.4,16.3,20.8,11.4,1.8,89,66,47,29.70,29.37,11,7,32,0.08
2013-2-18,31.0,22.0,13.1,4.4,2.2,-0.9,59,43,26,30.13,29.66,9,5,27,0.00
2013-2-19,47.1,34.8,18.8,41.6,24.3,4.1,98,67,47,30.15,29.55,6,2,16,0.23
2013-2-20,40.1,31.8,25.5,39.5,21.5,12.5,98,67,46,29.75,29.51,9,5,23,0.00
2013-2-21,32.8,26.9,22.8,16.5,14.6,11.7,74,60,47,30.17,29.74,10,5,25,0.00
2013-2-22,38.5,30.1,19.1,26.1,21.1,15.7,89,70,47,30.36,30.17,10,3,18,0.00
2013-2-23,38.2,32.8,25.9,31.8,28.7,23.0,97,85,72,30.31,29.90,5,1,11,0.11
2013-2-24,35.2,33.0,30.6,34.7,32.1,29.5,98,96,94,29.89,29.67,10,4,19,0.45
2013-2-25,38.6,33.1,28.1,33.6,30.9,27.1,97,92,77,30.22,29.87,3,1,7,0.00
2013-2-26,43.4,33.8,24.8,35.9,28.9,24.0,98,83,60,30.31,30.13,7,2,13,0.00
2013-2-27,41.1,38.0,33.5,39.8,36.5,30.1,98,94,85,30.14,29.54,12,7,31,1.20
2013-2-28,44.7,36.7,32.5,38.2,34.5,31.4,98,92,75,29.61,29.50,3,1,7,0.00
2013-3-1,40.2,36.2,29.4,34.5,30.7,28.5,98,81,67,29.66,29.51,6,2,14,0.00
2013-3-2,41.6,36.4,30.2,31.3,28.3,25.9,85,73,62,29.65,29.59,6,2,13,0.00
2013-3-3,39.6,34.3,31.9,33.3,29.4,25.9,94,82,73,29.62,29.53,5,2,11,0.00
2013-3-4,39.8,33.9,28.9,28.6,25.4,22.1,84,71,57,29.72,29.55,8,5,22,0.00
2013-3-5,44.7,35.4,29.5,32.8,27.7,23.8,94,74,57,30.05,29.72,7,3,17,0.00
2013-3-6,39.3,35.8,31.4,35.4,33.1,29.6,96,90,75,30.08,30.02,15,8,30,0.10
2013-3-7,34.9,32.1,30.6,31.5,29.7,28.0,95,91,81,30.05,29.97,15,9,28,0.05
2013-3-8,39.3,33.1,29.6,33.7,29.0,24.7,97,86,63,30.13,29.92,10,6,23,0.61
2013-3-9,47.6,34.6,23.2,31.9,24.7,20.3,96,69,38,30.33,30.13,12,3,22,0.00
2013-3-10,43.0,31.5,18.0,32.8,27.1,16.3,96,85,66,30.39,30.28,7,2,12,0.00
2013-3-11,53.7,41.7,32.2,40.5,35.6,29.9,95,80,52,30.30,30.12,6,3,14,0.00
2013-3-12,55.9,48.8,41.3,53.0,47.1,40.0,98,94,82,30.13,29.69,8,3,22,0.37
2013-3-13,51.2,42.5,30.1,50.7,32.4,21.9,98,70,36,29.75,29.67,6,3,17,0.00
2013-3-14,36.4,30.3,22.1,25.3,17.3,8.3,82,59,43,29.81,29.68,8,4,23,0.00
2013-3-15,40.6,29.9,19.1,28.3,15.0,6.3,79,55,29,29.84,29.60,7,4,19,0.00
2013-3-16,39.2,33.1,26.9,26.5,17.2,9.9,81,54,31,29.86,29.65,7,2,19,0.00
2013-3-17,38.3,29.6,20.2,19.6,13.1,5.7,86,52,29,30.29,29.85,9,3,21,0.00
2013-3-18,37.9,27.7,15.1,26.6,11.2,3.4,92,52,27,30.43,30.22,5,2,11,0.04
2013-3-19,34.7,31.9,27.2,33.3,30.7,25.4,97,95,92,30.22,29.59,14,6,24,1.07
2013-3-20,38.6,30.0,23.4,25.7,22.8,19.8,95,76,50,29.79,29.68,7,3,20,0.00
2013-3-21,38.2,28.1,18.0,28.5,21.8,15.9,94,79,44,29.79,29.58,6,1,11,0.00
2013-3-22,40.6,32.8,26.0,26.4,21.0,17.3,95,63,43,29.72,29.58,7,3,18,0.00
2013-3-23,42.6,34.5,25.7,24.7,21.2,18.8,81,59,41,29.76,29.61,8,4,28,0.00
2013-3-24,46.4,36.8,28.7,28.3,24.1,21.0,85,61,43,29.79,29.69,9,3,19,0.00
2013-3-25,41.2,35.2,27.6,33.7,30.1,24.8,93,82,69,29.75,29.49,13,5,26,0.00
2013-3-26,49.4,40.0,33.2,30.8,26.6,20.3,80,60,35,29.76,29.52,7,3,14,0.00
2013-3-27,53.6,40.8,25.4,32.5,26.6,22.9,91,60,35,29.85,29.71,9,3,18,0.00
2013-3-28,47.7,41.1,35.4,36.2,34.0,30.3,93,77,52,29.99,29.84,8,2,14,0.00
2013-3-29,56.2,43.2,29.3,39.1,33.1,28.0,96,70,42,30.02,29.93,7,2,14,0.02
2013-3-30,56.7,44.5,31.7,34.5,26.0,15.6,92,54,21,30.07,29.97,7,2,14,0.00
2013-3-31,60.2,43.8,25.9,40.3,28.0,21.4,90,59,25,30.10,29.72,9,3,21,0.02
2013-4-1,63.4,46.6,34.0,45.4,37.1,13.9,97,72,40,29.76,29.47,9,4,24,0.09
2013-4-2,41.1,34.2,28.5,20.5,15.3,11.4,59,46,32,29.91,29.76,10,5,26,0.00
2013-4-3,46.7,36.7,29.2,19.4,15.5,10.6,63,43,24,30.14,29.90,9,6,22,0.00
2013-4-4,55.8,41.7,26.9,26.6,18.7,12.9,66,42,20,30.27,30.02,7,4,19,0.00
2013-4-5,62.1,46.0,36.2,32.2,27.9,21.6,74,52,23,30.02,29.60,9,4,23,0.00
2013-4-6,46.7,37.3,27.7,27.9,13.8,5.8,66,40,20,30.31,29.85,9,4,22,0.00
2013-4-7,56.9,41.6,24.5,40.3,27.3,11.9,85,59,30,30.31,29.97,11,4,29,0.00
2013-4-8,64.7,51.7,40.7,44.4,40.2,33.9,95,68,33,30.06,29.92,6,2,14,0.00
2013-4-9,71.7,56.0,45.8,54.1,45.0,39.9,95,69,43,30.05,29.83,8,3,23,0.03
2013-4-10,63.6,51.5,45.6,50.9,46.2,42.3,96,83,59,29.99,29.83,5,2,11,0.15
2013-4-11,53.9,47.0,41.9,48.3,40.0,26.9,97,79,47,30.12,29.79,7,3,13,0.03
2013-4-12,41.9,38.2,36.4,37.5,35.5,31.8,96,90,70,30.14,29.77,11,5,26,0.41
2013-4-13,53.2,43.3,35.2,40.9,37.4,33.8,96,81,54,29.91,29.74,9,3,17,0.04
2013-4-14,53.4,45.1,33.9,41.6,33.8,28.0,95,67,41,30.19,29.89,7,2,18,0.00
2013-4-15,57.2,43.4,28.4,39.2,33.2,26.1,94,70,39,30.37,30.19,7,2,16,0.00
2013-4-16,66.3,52.1,36.3,51.5,43.0,34.4,95,73,49,30.38,30.02,9,5,26,0.00
2013-4-17,66.6,57.7,42.9,53.2,39.1,29.7,88,53,28,30.31,30.02,8,4,19,0.00
2013-4-18,64.6,49.8,33.0,45.3,35.1,29.1,92,60,36,30.40,30.11,9,3,22,0.00
2013-4-19,75.7,63.0,51.9,63.1,57.6,45.3,97,83,59,30.11,29.61,11,5,27,0.00
2013-4-20,66.8,53.9,43.2,63.1,42.6,25.2,95,68,38,30.18,29.57,9,4,22,0.44
2013-4-21,52.6,42.1,30.8,28.5,24.4,19.4,82,51,29,30.66,30.19,10,3,20,0.00
2013-4-22,50.2,40.5,28.8,37.5,30.2,22.2,94,69,35,30.73,30.57,10,4,25,0.00
2013-4-23,41.6,40.1,36.6,40.3,37.5,31.0,96,91,76,30.57,30.11,11,6,22,0.00
2013-4-24,75.5,56.4,40.9,54.2,45.3,38.8,96,71,27,30.11,29.75,9,5,24,0.00
2013-4-25,63.9,54.4,39.6,52.4,38.1,26.0,91,58,26,30.24,29.80,8,3,24,0.03
2013-4-26,59.1,47.1,31.7,40.5,35.1,29.4,92,66,41,30.40,30.24,8,3,18,0.00
2013-4-27,63.7,50.8,34.4,43.1,37.0,32.3,95,63,37,30.40,30.25,5,2,14,0.00
2013-4-28,70.0,54.1,36.0,44.5,37.0,29.4,95,57,28,30.31,30.18,8,2,17,0.00
2013-4-29,70.5,57.3,43.9,50.1,38.7,28.2,91,54,28,30.24,30.15,7,2,16,0.00
2013-4-30,68.0,55.9,41.9,40.7,31.6,21.2,83,44,20,30.34,30.22,7,2,16,0.00
2013-5-1,68.3,53.2,34.4,41.8,35.2,30.8,95,56,28,30.44,30.33,7,2,15,0.00
2013-5-2,76.5,54.7,38.0,48.9,40.8,35.4,95,64,28,30.46,30.31,10,2,20,0.00
2013-5-3,60.0,49.4,39.2,46.9,41.3,36.4,93,75,58,30.50,30.35,11,4,20,0.00
2013-5-4,60.4,48.0,35.6,46.8,39.0,32.8,96,73,39,30.35,30.27,11,3,20,0.00
2013-5-5,59.0,46.2,30.8,44.1,37.6,29.0,96,74,52,30.31,30.22,7,2,15,0.00
2013-5-6,70.8,50.8,32.8,52.3,43.0,31.0,97,77,34,30.26,30.11,6,2,13,0.00
2013-5-7,77.2,62.3,41.9,59.5,52.2,40.3,97,72,47,30.15,30.05,5,2,13,0.00
2013-5-8,72.8,61.8,50.2,63.4,57.6,48.4,97,87,69,30.17,30.02,7,3,16,0.17
2013-5-9,68.2,59.7,56.2,62.8,58.0,55.1,98,94,76,30.02,29.86,5,1,9,0.81
2013-5-10,79.7,65.7,53.8,62.9,57.6,53.2,99,78,44,29.93,29.86,4,1,11,0.01
2013-5-11,70.4,64.0,58.6,63.2,59.4,54.9,95,85,73,29.88,29.66,8,3,22,0.03
2013-5-12,71.3,61.1,48.2,60.8,52.3,32.0,96,76,43,29.78,29.53,5,2,22,0.14
2013-5-13,59.8,49.1,38.5,39.1,33.5,28.6,89,57,33,30.00,29.78,6,2,22,0.00
2013-5-14,59.4,47.9,34.2,39.0,33.7,29.3,93,62,34,30.03,29.94,6,2,17,0.00
2013-5-15,67.2,51.1,32.7,51.8,40.9,30.8,96,73,32,30.03,29.65,7,2,22,0.02
2013-5-16,81.3,65.1,44.9,54.5,43.9,34.2,98,54,23,29.77,29.60,7,2,27,0.00
2013-5-17,68.0,58.8,47.0,46.6,42.8,37.4,86,57,35,30.19,29.78,9,3,19,0.00
2013-5-18,74.8,58.5,40.5,49.5,44.4,38.6,96,64,28,30.28,30.19,5,1,15,0.00
2013-5-19,72.8,56.4,45.5,55.3,50.4,43.3,97,82,47,30.32,30.19,6,2,12,0.03
2013-5-20,82.2,67.4,55.4,69.4,61.6,54.3,98,83,56,30.19,29.87,4,1,12,0.05
2013-5-21,79.1,61.1,50.9,69.3,57.6,49.2,98,89,66,29.99,29.83,11,4,23,0.00
2013-5-22,68.7,56.3,49.8,63.8,54.0,48.7,98,92,79,30.04,29.86,8,2,16,0.24
2013-5-23,76.2,63.7,53.9,70.7,61.2,52.8,99,92,80,29.90,29.77,6,2,20,0.22
2013-5-24,73.0,63.1,48.5,67.9,60.9,47.1,98,93,78,29.80,29.62,6,2,15,0.25
2013-5-25,51.2,47.0,40.9,50.1,45.9,39.3,97,96,94,29.79,29.68,6,3,20,0.28
2013-5-26,58.5,48.2,39.6,45.6,40.8,37.8,96,77,54,30.08,29.69,7,3,21,0.05
2013-5-27,72.7,56.7,37.8,47.5,40.9,36.1,97,62,28,30.15,30.04,6,2,20,0.00
2013-5-28,74.3,58.1,39.1,53.4,46.1,37.1,96,68,34,30.21,30.12,7,2,14,0.00
2013-5-29,70.2,62.5,57.5,65.0,59.9,52.4,97,91,83,30.16,29.95,4,1,8,0.86
2013-5-30,88.6,74.7,60.3,71.5,66.5,59.4,99,78,51,30.05,29.96,5,1,14,0.01
2013-5-31,94.1,79.5,61.4,73.6,66.5,60.2,98,69,39,30.06,29.89,6,2,15,0.00
2013-6-1,93.2,80.3,64.2,71.5,67.2,61.8,94,67,41,29.94,29.81,7,2,18,0.00
2013-6-2,89.9,78.2,68.4,71.5,67.4,64.3,91,71,44,29.84,29.68,10,4,31,0.00
2013-6-3,79.7,69.3,59.9,69.6,63.0,46.3,95,81,60,29.82,29.72,4,1,14,0.41
2013-6-4,71.9,61.1,46.9,50.5,46.9,42.3,90,61,41,30.06,29.79,6,2,15,0.00
2013-6-5,75.3,62.2,46.8,54.4,48.9,44.4,96,65,36,30.16,30.05,5,1,11,0.00
2013-6-6,74.2,64.1,51.9,57.4,51.5,48.3,92,65,46,30.16,30.06,4,1,13,0.02
2013-6-7,59.2,55.5,53.1,56.5,54.2,52.3,98,95,85,30.08,29.79,7,3,15,2.23
2013-6-8,80.3,63.1,52.7,66.5,58.3,52.2,99,86,60,29.97,29.60,7,3,18,1.03
2013-6-9,80.8,67.5,53.5,61.2,57.1,52.4,98,73,44,30.13,29.97,5,1,16,0.00
2013-6-10,69.1,61.0,52.5,61.4,56.8,51.0,97,87,66,30.17,29.99,5,2,10,0.79
2013-6-11,62.4,58.0,55.7,59.0,56.6,54.9,98,95,87,29.99,29.54,7,3,17,0.99
2013-6-12,70.1,62.4,56.1,60.0,56.1,52.9,98,81,61,29.78,29.53,8,3,23,0.06
2013-6-13,67.3,57.1,49.1,60.4,53.9,47.5,97,90,70,29.79,29.65,5,1,14,0.72
2013-6-14,75.5,59.9,51.9,61.8,54.7,50.9,98,85,48,29.74,29.62,7,3,13,1.00
2013-6-15,79.4,65.7,50.9,56.2,50.7,43.0,97,64,28,29.91,29.74,6,2,15,0.00
2013-6-16,77.5,65.3,50.1,62.6,56.2,48.4,96,74,46,29.91,29.68,5,1,12,0.00
2013-6-17,86.1,69.6,56.9,66.9,61.0,54.9,97,77,40,29.87,29.74,6,2,16,0.86
2013-6-18,73.6,62.4,57.2,65.1,59.9,56.4,98,92,72,29.91,29.85,10,2,21,0.40
2013-6-19,75.3,64.0,54.9,58.6,54.3,47.1,98,74,40,30.11,29.88,7,2,15,0.12
2013-6-20,80.3,66.0,48.2,58.7,53.2,46.8,97,67,37,30.23,30.11,5,1,13,0.00
2013-6-21,85.7,72.0,57.3,65.7,60.0,54.1,92,69,36,30.21,30.15,4,1,10,0.00
2013-6-22,85.2,73.0,59.5,68.6,62.3,57.5,95,71,46,30.18,30.07,5,2,15,0.00
2013-6-23,89.6,77.1,63.8,75.9,67.0,58.5,84,72,57,30.12,29.95,6,2,17,0.00
2013-6-24,94.1,81.0,69.6,76.2,71.0,65.0,95,74,50,29.98,29.83,5,2,15,0.03
2013-6-25,91.9,79.8,67.6,74.6,69.7,65.8,95,74,49,29.89,29.68,5,2,18,0.00
2013-6-26,84.5,75.4,68.4,74.0,69.8,65.8,95,84,63,29.82,29.68,6,1,11,0.05
2013-6-27,73.8,66.4,61.8,68.9,64.6,60.9,98,94,82,29.84,29.72,5,2,11,0.08
2013-6-28,83.7,70.8,59.5,75.7,67.6,58.8,99,90,71,29.73,29.44,8,3,18,0.31
2013-6-29,85.5,75.8,70.0,72.9,69.7,67.0,97,82,61,29.69,29.48,6,3,18,0.00
2013-6-30,86.5,76.8,67.6,75.4,70.8,66.0,97,82,64,29.89,29.68,5,2,13,0.00
2013-7-1,83.3,75.1,71.2,76.4,72.3,69.7,97,91,76,30.04,29.90,4,1,11,0.05
2013-7-2,85.0,73.8,61.7,75.9,69.9,60.3,95,88,66,30.17,30.03,8,3,15,0.00
2013-7-3,89.3,74.8,61.1,76.3,69.2,60.0,98,84,60,30.17,30.09,5,2,16,0.00
2013-7-4,93.3,82.9,71.3,77.8,74.1,69.8,97,76,55,30.17,30.05,4,2,13,0.00
2013-7-5,94.2,84.4,73.5,79.1,74.7,71.3,95,74,53,30.12,29.99,4,2,13,0.00
2013-7-6,91.4,81.9,70.3,77.0,72.6,65.0,96,75,53,30.04,29.93,4,1,13,0.00
2013-7-7,93.6,78.1,65.7,79.3,71.5,63.6,96,82,55,29.99,29.86,3,1,10,0.03
2013-7-8,85.2,76.2,67.1,76.8,71.8,65.3,98,87,69,30.03,29.87,8,2,15,0.00
2013-7-9,73.0,68.1,64.3,68.8,65.7,63.0,97,92,85,30.07,30.01,5,2,8,0.00
2013-7-10,85.8,74.1,66.3,77.1,70.7,64.5,98,90,72,30.04,29.75,5,2,16,0.04
2013-7-11,83.5,76.1,70.8,76.4,72.8,68.3,98,90,73,29.89,29.74,4,1,10,0.05
2013-7-12,76.1,70.4,65.9,68.3,61.7,57.1,94,75,56,30.16,29.89,10,4,21,0.00
2013-7-13,79.0,70.8,64.7,72.0,66.2,59.8,94,85,77,30.27,30.17,6,2,11,0.01
2013-7-14,91.3,78.8,67.7,76.4,71.8,65.9,98,81,52,30.26,30.16,3,1,9,0.01
2013-7-15,92.0,80.0,68.5,77.9,72.3,67.3,98,79,50,30.17,30.05,5,1,12,0.00
2013-7-16,92.8,79.7,65.6,74.7,69.7,64.0,98,74,45,30.13,30.06,6,2,16,0.00
2013-7-17,95.4,82.3,68.1,75.6,71.6,66.6,97,73,44,30.14,29.95,4,1,11,0.00
2013-7-18,92.3,81.8,73.8,77.9,72.8,69.4,95,76,49,29.97,29.90,5,2,13,0.00
2013-7-19,96.7,84.6,70.6,78.6,74.4,69.0,97,74,48,29.91,29.67,6,2,20,0.00
2013-7-20,92.7,83.6,72.4,79.6,74.6,65.5,93,75,57,29.77,29.61,4,2,12,0.00
2013-7-21,81.7,73.6,64.7,69.9,65.7,62.0,95,78,57,29.95,29.77,5,2,11,0.00
2013-7-22,82.5,71.3,63.0,71.7,66.7,61.8,98,86,64,29.98,29.85,5,2,12,0.00
2013-7-23,81.5,72.7,69.0,77.9,71.1,66.7,99,95,84,29.85,29.50,4,1,12,0.82
2013-7-24,85.2,76.2,65.1,75.5,68.6,54.3,99,79,59,29.92,29.54,7,2,14,0.00
2013-7-25,65.0,59.7,57.8,57.9,54.7,49.6,97,84,69,30.08,29.93,7,3,16,1.37
2013-7-26,72.8,64.6,58.7,69.9,62.8,57.9,98,94,88,30.04,29.91,5,2,15,0.27
2013-7-27,85.4,71.7,57.1,70.5,64.2,55.9,98,79,51,30.02,29.95,4,1,12,0.00
2013-7-28,81.5,71.1,63.6,73.6,67.3,61.3,98,88,71,29.99,29.92,6,2,13,0.01
2013-7-29,85.0,73.7,66.5,73.5,68.7,65.0,98,85,61,30.00,29.92,5,1,13,0.07
2013-7-30,81.6,71.4,59.2,66.5,61.7,56.8,98,74,45,30.06,29.99,4,1,11,0.01
2013-7-31,83.2,70.6,57.8,67.1,60.9,56.2,97,74,44,30.10,30.00,4,1,7,0.00
2013-8-1,81.6,69.8,60.2,68.7,63.8,59.1,98,83,58,30.01,29.84,5,1,13,0.01
2013-8-2,83.5,71.6,64.0,70.0,64.1,59.5,98,80,47,29.84,29.75,4,1,13,0.63
2013-8-3,80.5,70.3,62.9,67.5,63.5,60.4,96,80,57,29.83,29.74,4,1,14,0.00
2013-8-4,79.5,67.3,55.5,62.7,58.5,54.1,97,76,47,29.86,29.73,5,1,14,0.00
2013-8-5,75.4,63.2,50.7,56.6,50.5,44.6,97,67,35,30.02,29.86,6,2,19,0.00
2013-8-6,79.8,63.3,47.3,60.0,52.8,45.7,97,72,42,30.11,30.02,4,1,10,0.00
2013-8-7,80.5,66.8,51.9,63.9,56.1,50.5,97,72,40,30.15,30.07,4,1,12,0.00
2013-8-8,81.4,71.7,64.0,72.7,67.1,57.1,96,86,73,30.09,29.97,4,2,12,0.15
2013-8-9,74.9,72.5,70.9,74.3,71.0,69.0,98,95,92,29.99,29.71,5,2,18,1.18
2013-8-10,84.2,73.1,59.2,70.3,63.6,55.6,98,75,44,29.98,29.75,4,2,13,0.01
2013-8-11,80.7,66.7,51.9,61.6,56.6,50.3,97,73,44,30.05,29.96,5,1,12,0.00
2013-8-12,83.5,69.6,57.3,66.0,59.9,56.1,98,75,44,30.00,29.88,3,1,10,0.00
2013-8-13,76.9,67.7,62.7,69.0,64.5,60.6,97,90,68,29.89,29.65,2,0,8,0.02
2013-8-14,74.1,65.9,57.0,62.4,56.2,52.6,97,73,51,29.93,29.63,6,2,18,0.00
2013-8-15,78.0,64.0,50.4,58.1,53.6,49.0,97,72,41,30.08,29.93,4,1,13,0.00
2013-8-16,80.3,65.6,51.5,61.5,56.1,50.4,98,75,41,30.16,30.08,4,1,14,0.00
2013-8-17,79.5,66.1,52.0,64.6,58.3,50.6,98,78,54,30.24,30.16,4,1,8,0.00
2013-8-18,79.1,67.2,55.3,67.6,61.6,53.8,97,83,60,30.24,30.05,2,0,7,0.00
2013-8-19,82.0,70.0,56.7,67.6,61.9,55.6,98,78,52,30.05,29.92,3,1,8,0.00
2013-8-20,87.0,73.1,59.1,68.1,63.3,57.2,97,74,42,30.06,29.95,3,1,9,0.00
2013-8-21,88.9,73.5,58.5,71.4,64.5,57.3,98,76,45,30.11,29.99,3,1,9,0.00
2013-8-22,86.7,74.2,61.9,74.2,68.1,60.6,97,82,56,30.00,29.79,6,2,17,0.00
2013-8-23,80.3,71.6,62.3,69.0,61.6,52.1,96,73,44,30.10,29.78,8,2,16,0.00
2013-8-24,78.8,63.6,49.7,55.3,51.3,46.8,96,68,36,30.30,30.10,7,1,14,0.00
2013-8-25,83.8,66.1,47.7,61.1,53.8,46.3,97,69,34,30.34,30.15,4,1,11,0.00
2013-8-26,81.4,70.7,64.0,68.6,63.4,56.8,88,78,61,30.15,29.83,5,1,14,0.00
2013-8-27,83.8,73.3,64.3,71.5,67.5,62.2,97,83,58,29.86,29.79,5,1,10,0.02
2013-8-28,85.6,70.5,59.2,70.9,64.5,58.1,98,83,59,29.95,29.82,7,1,14,0.00
2013-8-29,65.4,64.0,60.1,64.2,61.7,57.4,96,92,88,30.04,29.91,9,4,16,0.00
2013-8-30,84.8,70.3,59.5,70.5,64.2,57.5,95,82,58,30.00,29.78,4,1,9,0.00
2013-8-31,81.4,73.7,67.7,75.1,70.8,66.2,98,91,79,29.80,29.75,5,2,13,0.02
2013-9-1,80.1,72.9,69.0,76.4,71.2,67.4,98,94,86,29.85,29.75,4,1,10,0.27
2013-9-2,79.9,74.0,70.9,76.2,72.0,70.0,98,94,86,29.84,29.67,4,1,13,0.20
2013-9-3,81.4,73.2,61.6,73.0,68.7,57.9,98,87,68,29.78,29.66,5,1,11,0.00
2013-9-4,81.0,67.5,55.0,63.7,58.2,53.9,98,75,44,29.89,29.77,4,1,15,0.01
2013-9-5,70.0,61.2,47.7,62.0,53.5,43.8,97,78,43,30.12,29.83,6,2,17,0.03
2013-9-6,71.0,55.3,40.4,50.4,44.8,39.0,97,72,40,30.22,30.06,4,1,11,0.00
2013-9-7,80.2,62.7,47.3,59.4,52.8,45.6,97,73,40,30.06,29.82,4,1,12,0.00
2013-9-8,74.6,63.2,47.8,63.8,53.9,42.4,96,74,43,30.07,29.72,9,2,21,0.02
2013-9-9,70.3,55.8,39.3,51.7,46.1,37.8,97,73,42,30.21,30.07,4,1,13,0.00
2013-9-10,75.4,65.2,52.6,71.2,62.4,49.4,96,90,84,30.13,30.00,5,2,16,0.08
2013-9-11,95.0,80.4,67.7,79.0,72.6,66.8,99,80,51,30.03,29.89,5,2,13,0.00
2013-9-12,87.3,77.0,67.9,76.2,70.5,66.0,97,81,61,29.93,29.63,7,2,20,0.94
2013-9-13,79.8,67.7,58.6,70.3,64.7,55.3,98,90,67,29.73,29.53,5,1,13,0.17
2013-9-14,67.1,59.9,49.7,56.9,53.7,47.4,92,81,66,30.03,29.73,5,1,12,0.00
2013-9-15,72.5,57.6,44.5,56.8,49.9,43.3,98,78,46,30.13,30.02,3,1,10,0.00
2013-9-16,67.4,56.3,47.4,58.2,51.2,38.7,97,84,64,30.23,29.98,5,2,15,0.01
2013-9-17,63.4,49.9,37.6,47.3,40.6,35.5,94,72,45,30.40,30.23,7,2,15,0.00
2013-9-18,74.5,55.0,37.8,54.0,45.7,36.5,98,75,38,30.30,30.11,4,1,8,0.00
2013-9-19,79.8,60.3,43.6,59.9,51.9,42.4,98,77,39,30.11,30.00,3,0,7,0.01
2013-9-20,80.5,61.8,45.5,61.5,53.6,44.3,98,78,39,30.06,29.96,3,1,7,0.00
2013-9-21,74.8,64.0,50.1,66.0,59.7,48.4,98,87,66,30.00,29.69,6,2,18,0.01
2013-9-22,71.3,64.1,50.5,67.4,57.6,46.5,96,81,52,29.81,29.57,5,2,17,0.48
2013-9-23,62.4,52.0,42.2,47.6,43.5,39.6,93,74,55,29.98,29.81,6,2,16,0.00
2013-9-24,66.6,52.3,38.8,47.9,43.2,37.2,96,74,46,29.97,29.78,6,2,15,0.00
2013-9-25,66.6,53.3,40.9,53.4,47.3,39.6,98,82,61,29.96,29.84,7,1,12,0.00
2013-9-26,66.6,56.7,50.1,52.8,49.9,47.6,95,80,55,30.10,29.96,6,1,10,0.00
2013-9-27,64.0,56.7,48.0,56.0,52.2,46.1,96,85,69,30.24,30.10,6,1,12,0.00
2013-9-28,72.3,56.1,43.1,59.0,50.0,42.0,98,82,54,30.30,30.23,7,1,13,0.00
2013-9-29,68.7,52.8,43.0,57.0,47.4,40.6,98,84,45,30.24,30.10,5,1,10,0.01
2013-9-30,68.0,53.9,43.2,54.6,49.1,41.6,99,85,53,30.11,29.94,4,1,9,0.01
2013-10-1,75.9,57.7,41.9,58.5,50.6,40.8,99,80,47,29.94,29.82,5,1,11,0.00
2013-10-2,79.5,63.1,48.2,64.0,56.6,47.1,98,82,55,29.92,29.79,5,1,15,0.00
2013-10-3,76.7,60.5,47.6,60.3,52.0,46.3,98,77,40,30.05,29.92,3,0,7,0.01
2013-10-4,64.0,55.8,47.3,59.1,53.7,46.1,98,93,83,30.06,30.01,4,0,7,0.07
2013-10-5,68.6,61.2,56.2,60.4,57.4,55.3,98,88,72,30.10,30.03,3,1,6,0.01
2013-10-6,59.6,56.1,53.6,57.5,55.1,52.5,98,97,91,30.20,30.08,6,2,14,0.36
2013-10-7,76.8,64.9,56.4,71.8,62.3,55.3,100,92,76,30.10,29.77,8,2,30,0.06
2013-10-8,64.5,55.3,42.5,55.5,46.5,39.9,96,74,46,30.35,29.87,6,2,15,0.00
2013-10-9,60.7,47.8,36.7,49.0,42.1,35.6,97,82,55,30.45,30.34,7,2,16,0.01
2013-10-10,62.2,49.6,37.0,53.9,46.1,35.7,98,88,71,30.35,30.16,5,1,10,0.00
2013-10-11,70.0,54.7,43.2,57.2,46.6,33.1,98,78,28,30.16,30.07,6,1,12,0.00
2013-10-12,58.9,51.6,41.5,56.3,49.2,40.0,98,92,85,30.37,30.13,8,3,19,0.00
2013-10-13,58.9,49.9,37.5,51.7,45.5,35.3,97,85,67,30.42,30.35,7,1,15,0.00
2013-10-14,65.1,47.7,32.1,50.6,40.7,30.8,98,80,41,30.38,30.22,3,0,8,0.01
2013-10-15,65.6,54.8,46.5,56.7,50.3,44.8,97,86,68,30.24,30.15,6,1,10,0.00
2013-10-16,61.4,53.8,45.8,55.7,51.2,44.4,98,91,74,30.16,29.88,3,1,8,0.00
2013-10-17,73.3,59.9,49.2,62.5,55.8,48.1,99,87,64,29.89,29.69,4,1,12,0.01
2013-10-18,67.1,59.0,42.8,60.3,51.6,40.6,97,79,50,29.88,29.58,6,2,20,0.03
2013-10-19,66.6,52.3,37.3,51.1,43.2,36.3,98,75,43,29.95,29.72,5,1,11,0.00
2013-10-20,61.8,51.6,37.4,50.0,41.1,34.3,95,70,40,29.99,29.66,6,2,17,0.02
2013-10-21,67.2,49.5,32.7,47.3,39.9,31.3,98,73,42,30.09,29.97,5,1,13,0.00
2013-10-22,65.7,52.5,39.1,54.0,45.6,37.3,97,79,59,29.97,29.67,6,1,16,0.00
2013-10-23,51.5,43.3,33.5,42.0,35.9,31.6,97,77,51,29.77,29.57,2,0,6,0.00
2013-10-24,54.5,43.9,32.3,37.8,31.4,25.9,94,64,39,29.86,29.62,7,2,22,0.00
2013-10-25,50.1,38.3,27.8,39.8,29.2,25.6,96,72,46,30.13,29.86,5,1,15,0.00
2013-10-26,55.7,40.9,26.1,39.4,29.9,24.6,97,69,34,30.13,29.86,9,3,27,0.00
2013-10-27,55.2,46.8,36.9,41.0,35.6,29.8,92,67,45,30.04,29.78,5,2,16,0.02
2013-10-28,59.1,42.8,29.6,39.4,31.7,25.9,96,68,43,30.33,30.04,7,2,21,0.01
2013-10-29,49.7,34.5,23.5,32.0,24.3,19.6,95,69,33,30.42,30.32,4,1,9,0.00
2013-10-30,51.8,37.4,27.3,42.8,33.6,24.2,95,87,66,30.35,30.17,3,0,10,0.03
2013-10-31,60.1,45.2,28.5,58.6,43.8,27.3,98,95,86,30.22,29.76,5,1,17,0.23
2013-11-1,70.1,63.4,55.1,63.2,58.3,52.2,97,84,69,29.76,29.42,35,5,35,0.12
2013-11-2,67.2,54.2,43.3,52.5,45.8,41.6,98,76,41,29.70,29.55,10,1,10,0.01
2013-11-3,49.5,40.9,30.4,46.6,29.9,15.9,92,67,40,30.40,29.69,16,4,16,0.00
2013-11-4,41.7,31.4,23.1,21.3,18.8,15.5,88,61,36,30.68,30.40,15,2,15,0.00
2013-11-5,49.2,34.8,21.8,33.6,27.1,19.3,94,76,48,30.69,30.49,10,1,10,0.00
2013-11-6,61.7,49.6,38.1,49.4,41.9,33.6,90,76,52,30.49,30.01,15,3,17,0.00
2013-11-7,65.4,53.6,36.8,58.1,49.8,32.6,94,87,73,30.01,29.63,20,3,20,0.17
2013-11-8,50.4,37.7,28.1,36.8,28.8,22.6,94,71,50,30.08,29.79,18,2,20,0.00
2013-11-9,45.9,37.3,27.2,29.9,25.9,22.6,85,64,42,30.19,30.00,20,2,20,0.00
2013-11-10,55.0,44.4,38.7,46.2,37.2,29.8,95,76,59,30.00,29.71,16,2,16,0.04
2013-11-11,51.8,44.5,37.2,34.1,30.1,27.0,73,58,39,30.08,29.83,15,3,16,0.00
2013-11-12,47.9,35.2,25.6,39.4,27.0,16.8,92,72,59,30.17,29.86,18,3,20,0.09
2013-11-13,36.1,27.3,19.7,20.8,16.4,12.3,86,65,42,30.27,30.14,12,2,15,0.00
2013-11-14,49.9,38.0,27.3,27.3,22.6,17.4,68,55,36,30.14,30.01,15,2,16,0.00
2013-11-15,61.1,43.6,27.1,34.1,25.0,16.6,85,53,19,30.17,30.07,18,2,18,0.00
2013-11-16,59.9,43.2,30.3,36.0,30.7,25.1,86,65,28,30.29,30.16,8,1,8,0.00
2013-11-17,51.1,40.9,28.5,45.3,37.0,25.9,96,86,71,30.29,29.82,5,0,5,0.00
2013-11-18,65.0,56.3,45.7,61.0,47.0,32.3,99,73,49,29.81,29.50,18,3,22,0.20
2013-11-19,47.6,39.0,29.4,32.7,24.0,17.3,64,55,44,30.26,29.62,23,4,23,0.00
2013-11-20,40.6,30.8,20.8,18.6,16.6,13.9,83,57,34,30.61,30.25,19,3,19,0.00
2013-11-21,46.9,31.8,17.6,29.5,21.6,14.9,92,69,36,30.62,30.35,11,1,11,0.00
2013-11-22,45.7,42.4,37.1,44.8,40.1,29.3,97,92,72,30.35,29.79,7,0,7,0.10
2013-11-23,45.4,39.1,28.3,44.7,28.4,17.3,98,67,40,29.89,29.75,22,4,22,0.00
2013-11-24,28.3,23.7,19.1,18.4,6.5,-1.8,73,49,30,30.17,29.76,34,6,34,0.00
2013-11-25,32.1,24.1,15.3,17.2,5.2,-4.2,60,45,24,30.35,30.17,18,3,18,0.00
2013-11-26,39.8,34.7,29.5,33.4,23.1,16.1,95,64,49,30.31,30.02,13,2,13,0.06
2013-11-27,61.6,50.1,34.7,60.5,49.0,33.4,98,96,92,30.01,29.18,26,4,26,1.56
2013-11-28,36.1,30.0,22.2,34.0,18.7,8.2,92,64,38,30.41,29.43,22,4,22,0.00
2013-11-29,33.2,25.8,19.8,18.3,12.6,2.5,80,58,36,30.72,30.41,13,2,13,0.00
2013-11-30,32.1,22.5,10.8,23.9,14.7,7.3,90,72,56,30.78,30.40,10,1,10,0.00
2013-12-1,35.9,33.0,28.8,35.0,30.5,24.0,97,90,78,30.40,29.99,9,0,9,0.05
2013-12-2,38.6,36.6,35.2,37.9,35.9,34.3,98,97,97,29.99,29.89,5,0,6,0.00
2013-12-3,47.4,36.7,28.2,38.9,33.6,27.0,98,89,62,29.93,29.82,12,2,12,0.00
2013-12-4,43.1,32.3,24.6,34.3,27.9,23.3,97,85,59,30.17,29.92,9,1,9,0.00
2013-12-5,45.3,37.1,27.7,44.5,35.6,25.9,98,94,91,30.19,29.89,9,0,9,0.00
2013-12-6,53.7,47.2,33.8,53.4,44.8,32.3,99,92,72,30.12,29.83,15,2,15,0.35
2013-12-7,38.3,32.2,23.3,34.3,28.2,21.3,97,86,65,30.43,30.06,14,2,14,0.05
2013-12-8,30.6,26.2,19.5,22.6,19.5,16.8,93,77,59,30.57,30.43,7,1,8,0.00
2013-12-9,34.9,30.5,24.8,33.9,28.6,18.5,97,93,67,30.48,29.86,9,1,9,0.34
2013-12-10,33.2,30.5,23.8,32.2,28.4,17.0,98,92,73,29.98,29.75,15,2,20,0.01
2013-12-11,31.3,24.6,18.6,20.4,18.1,15.4,87,77,59,30.18,29.98,19,3,20,0.00
2013-12-12,24.2,18.9,12.9,18.6,9.1,2.2,90,67,41,30.25,30.05,18,2,18,0.00
2013-12-13,29.3,20.2,11.9,17.7,12.0,2.7,83,71,56,30.38,29.97,19,3,20,0.00
2013-12-14,19.8,13.6,9.5,18.1,5.3,-2.0,93,70,53,30.59,30.14,13,4,13,0.14
2013-12-15,32.9,26.0,19.8,32.1,24.7,18.1,97,95,90,30.14,29.41,23,2,23,0.87
2013-12-16,26.9,21.7,14.7,21.8,15.3,8.2,94,77,56,30.18,29.72,14,1,15,0.00
2013-12-17,17.5,9.7,-4.4,15.8,6.3,-8.1,93,86,76,30.27,29.94,14,2,15,0.32
2013-12-18,33.0,23.1,14.4,25.3,19.4,12.0,93,86,71,30.05,29.86,15,3,17,0.01
2013-12-19,41.1,31.1,22.2,28.8,25.1,20.2,92,79,55,30.09,29.92,19,3,21,0.00
2013-12-20,52.2,39.4,28.1,38.5,32.5,25.9,94,77,54,30.09,29.87,12,2,13,0.00
2013-12-21,58.0,47.1,40.4,48.3,41.9,34.8,93,82,69,29.94,29.83,13,2,13,0.00
2013-12-22,51.5,39.9,33.2,50.7,39.1,32.7,98,97,92,30.01,29.77,15,2,18,0.00
2013-12-23,35.7,32.9,31.4,35.4,32.5,30.9,99,98,98,30.06,29.93,10,2,10,0.54
2013-12-24,35.7,31.4,25.2,35.4,23.5,14.4,99,74,54,30.18,30.03,13,2,13,0.00
2013-12-25,25.2,18.0,12.6,15.6,6.8,1.9,83,62,48,30.52,30.18,19,2,19,0.00
2013-12-26,30.1,21.8,12.6,27.0,18.5,8.8,93,87,81,30.49,30.06,5,0,5,0.03
2013-12-27,34.1,24.5,15.5,26.0,19.5,13.6,94,82,62,30.25,30.17,12,2,12,0.00
2013-12-28,45.9,32.0,23.0,29.1,24.9,19.1,92,77,51,30.19,29.96,17,2,18,0.00
2013-12-29,41.4,34.6,26.0,37.1,31.5,23.7,97,89,70,30.01,29.40,21,2,21,1.13
2013-12-30,39.9,31.9,18.1,37.9,24.5,10.1,98,76,47,30.14,29.50,17,3,19,0.00
2013-12-31,24.7,17.9,12.7,15.8,7.1,-1.4,83,63,48,30.16,29.99,13,2,14,0.00
2014-1-1,27.5,19.8,12.2,14.2,9.9,6.2,83,66,48,30.36,30.16,14,2,14,0.00
2014-1-2,19.6,10.8,0.3,16.0,8.0,-2.7,90,88,80,30.34,29.85,25,7,25,0.08